createdAt,value
2022-12-11T00:00:23.792Z,18.03
2022-12-11T00:02:50.800Z,18.90
2022-12-11T00:05:17.966Z,20.27
2022-12-11T00:07:44.993Z,18.47
2022-12-11T00:10:11.963Z,18.47
2022-12-11T00:12:38.962Z,18.27
2022-12-11T00:15:06.625Z,18.47
2022-12-11T00:17:33.764Z,18.03
2022-12-11T00:20:00.722Z,18.03
2022-12-11T00:22:30.358Z,18.80
2022-12-11T00:24:57.447Z,17.73
2022-12-11T00:27:24.453Z,17.90
2022-12-11T00:29:51.446Z,18.10
2022-12-11T00:32:18.428Z,19.07
2022-12-11T00:34:45.480Z,18.77
2022-12-11T00:37:12.494Z,18.53
2022-12-11T00:39:40.914Z,18.73
2022-12-11T00:42:08.678Z,18.80
2022-12-11T00:44:36.310Z,17.67
2022-12-11T00:47:04.191Z,16.73
2022-12-11T00:49:31.317Z,17.60
2022-12-11T00:51:58.357Z,16.90
2022-12-11T00:54:25.412Z,17.20
2022-12-11T00:56:52.377Z,17.33
2022-12-11T00:59:19.430Z,17.67
2022-12-11T01:01:46.416Z,17.77
2022-12-11T01:04:13.510Z,15.63
2022-12-11T01:06:40.570Z,17.40
2022-12-11T01:09:26.224Z,17.50
2022-12-11T01:11:53.175Z,15.27
2022-12-11T01:14:20.210Z,16.53
2022-12-11T01:16:47.255Z,16.60
2022-12-11T01:19:14.303Z,15.47
2022-12-11T01:21:41.336Z,15.77
2022-12-11T01:24:08.454Z,15.50
2022-12-11T01:26:36.088Z,13.70
2022-12-11T01:29:03.195Z,15.90
2022-12-11T01:31:30.163Z,15.70
2022-12-11T01:33:57.399Z,15.50
2022-12-11T01:36:24.564Z,13.03
2022-12-11T01:38:53.655Z,13.63
2022-12-11T01:41:21.884Z,14.27
2022-12-11T01:44:03.967Z,12.83
2022-12-11T01:46:33.962Z,14.77
2022-12-11T01:49:05.880Z,13.53
2022-12-11T01:51:41.237Z,13.40
2022-12-11T01:54:11.906Z,13.60
2022-12-11T01:56:41.959Z,12.97
2022-12-11T01:59:10.796Z,14.20
2022-12-11T02:01:51.094Z,13.23
2022-12-11T02:04:19.900Z,13.07
2022-12-11T02:06:50.990Z,12.93
2022-12-11T02:09:25.337Z,12.03
2022-12-11T02:12:29.819Z,12.53
2022-12-11T02:15:15.659Z,13.83
2022-12-11T02:17:59.950Z,13.07
2022-12-11T02:20:42.004Z,13.13
2022-12-11T02:23:44.038Z,13.77
2022-12-11T02:26:37.263Z,12.67
2022-12-11T02:29:13.286Z,14.40
2022-12-11T02:31:54.877Z,13.70
2022-12-11T02:34:47.570Z,13.43
2022-12-11T02:37:20.643Z,15.70
2022-12-11T02:39:52.712Z,14.97
2022-12-11T02:42:21.353Z,17.43
2022-12-11T02:44:50.711Z,18.17
2022-12-11T02:47:21.093Z,16.50
2022-12-11T02:49:50.385Z,17.00
2022-12-11T02:52:21.944Z,17.20
2022-12-11T02:54:51.113Z,15.33
2022-12-11T02:57:38.410Z,15.43
2022-12-11T03:00:08.762Z,15.33
2022-12-11T03:02:37.704Z,15.03
2022-12-11T03:05:05.639Z,15.17
2022-12-11T03:07:38.072Z,13.50
2022-12-11T03:10:08.717Z,15.43
2022-12-11T03:12:40.697Z,16.47
2022-12-11T03:15:13.990Z,15.73
2022-12-11T03:18:33.892Z,15.53
2022-12-11T03:21:35.540Z,15.73
2022-12-11T03:24:37.880Z,15.93
2022-12-11T03:27:34.741Z,15.57
2022-12-11T03:30:17.496Z,15.73
2022-12-11T03:32:52.215Z,16.73
2022-12-11T03:35:41.220Z,18.00
2022-12-11T03:38:40.360Z,15.80
2022-12-11T03:41:09.010Z,15.90
2022-12-11T03:43:37.542Z,15.50
2022-12-11T03:46:05.810Z,16.30
2022-12-11T03:48:38.309Z,16.07
2022-12-11T03:51:08.447Z,15.93
2022-12-11T03:53:37.428Z,16.60
2022-12-11T03:56:09.161Z,15.70
2022-12-11T03:58:36.342Z,16.97
2022-12-11T04:01:03.561Z,17.23
2022-12-11T04:03:30.638Z,18.37
2022-12-11T04:05:58.045Z,18.23
2022-12-11T04:08:25.169Z,16.80
2022-12-11T04:11:12.738Z,17.87
2022-12-11T04:13:41.465Z,18.50
2022-12-11T04:16:08.990Z,19.07
2022-12-11T04:18:55.048Z,16.27
2022-12-11T04:21:40.770Z,19.07
2022-12-11T04:24:18.093Z,18.00
2022-12-11T04:26:47.003Z,17.50
2022-12-11T04:29:15.045Z,16.90
2022-12-11T04:31:42.167Z,16.97
2022-12-11T04:34:09.703Z,16.47
2022-12-11T04:36:36.763Z,15.17
2022-12-11T04:39:05.856Z,14.80
2022-12-11T04:41:33.161Z,15.07
2022-12-11T04:44:00.173Z,16.67
2022-12-11T04:46:27.603Z,16.87
2022-12-11T04:48:57.738Z,16.67
2022-12-11T04:51:25.316Z,16.30
2022-12-11T04:53:52.764Z,15.80
2022-12-11T04:56:19.921Z,16.73
2022-12-11T04:58:47.906Z,16.77
2022-12-11T05:01:18.745Z,17.07
2022-12-11T05:03:46.803Z,17.00
2022-12-11T05:06:14.557Z,17.50
2022-12-11T05:08:43.257Z,16.43
2022-12-11T05:11:14.001Z,16.93
2022-12-11T05:13:41.774Z,18.03
2022-12-11T05:16:11.980Z,17.87
2022-12-11T05:18:39.175Z,18.70
2022-12-11T05:21:10.257Z,18.03
2022-12-11T05:23:38.675Z,17.27
2022-12-11T05:26:10.908Z,18.33
2022-12-11T05:28:39.278Z,18.07
2022-12-11T05:31:19.479Z,17.87
2022-12-11T05:33:48.950Z,18.67
2022-12-11T05:36:20.999Z,17.63
2022-12-11T05:38:48.507Z,18.33
2022-12-11T05:41:19.066Z,17.37
2022-12-11T05:43:46.152Z,16.97
2022-12-11T05:46:23.489Z,17.40
2022-12-11T05:48:54.381Z,17.53
2022-12-11T05:51:21.633Z,17.90
2022-12-11T05:53:50.864Z,17.73
2022-12-11T05:56:21.863Z,17.33
2022-12-11T05:58:50.547Z,16.97
2022-12-11T06:01:25.221Z,16.10
2022-12-11T06:03:54.211Z,16.90
2022-12-11T06:06:21.517Z,16.87
2022-12-11T06:08:56.399Z,17.77
2022-12-11T06:11:25.347Z,15.43
2022-12-11T06:13:53.182Z,14.90
2022-12-11T06:16:21.758Z,13.53
2022-12-11T06:18:49.113Z,14.43
2022-12-11T06:21:19.549Z,15.07
2022-12-11T06:23:48.456Z,13.07
2022-12-11T06:26:17.501Z,12.93
2022-12-11T06:28:45.345Z,13.10
2022-12-11T06:31:13.093Z,13.73
2022-12-11T06:33:43.163Z,12.47
2022-12-11T06:36:14.475Z,12.93
2022-12-11T06:38:41.801Z,12.47
2022-12-11T06:41:09.507Z,13.53
2022-12-11T06:43:39.053Z,13.77
2022-12-11T06:46:24.070Z,13.40
2022-12-11T06:48:51.716Z,13.20
2022-12-11T06:51:22.367Z,13.20
2022-12-11T06:53:57.088Z,12.27
2022-12-11T06:56:25.270Z,13.13
2022-12-11T06:58:52.626Z,13.17
2022-12-11T07:01:26.872Z,12.63
2022-12-11T07:03:55.824Z,11.90
2022-12-11T07:06:23.468Z,11.20
2022-12-11T07:08:50.858Z,11.33
2022-12-11T07:11:19.746Z,11.20
2022-12-11T07:13:47.584Z,11.47
2022-12-11T07:16:17.787Z,11.23
2022-12-11T07:18:50.499Z,11.90
2022-12-11T07:21:18.052Z,11.07
2022-12-11T07:23:45.161Z,10.73
2022-12-11T07:26:16.949Z,10.53
2022-12-11T07:28:44.230Z,10.07
2022-12-11T07:31:15.388Z,10.00
2022-12-11T07:33:43.730Z,10.37
2022-12-11T07:36:13.298Z,9.70
2022-12-11T07:38:41.050Z,12.10
2022-12-11T07:41:12.233Z,11.23
2022-12-11T07:43:40.004Z,10.60
2022-12-11T07:46:12.523Z,9.03
2022-12-11T07:48:42.017Z,8.73
2022-12-11T07:51:28.077Z,9.03
2022-12-11T07:54:01.062Z,9.40
2022-12-11T07:56:30.363Z,8.73
2022-12-11T07:59:03.891Z,9.43
2022-12-11T08:01:35.623Z,9.17
2022-12-11T08:04:05.138Z,9.27
2022-12-11T08:06:35.941Z,10.50
2022-12-11T08:09:07.267Z,11.00
2022-12-11T08:11:35.113Z,10.30
2022-12-11T08:14:02.699Z,9.70
2022-12-11T08:16:29.816Z,8.53
2022-12-11T08:18:57.706Z,9.20
2022-12-11T08:21:27.879Z,9.23
2022-12-11T08:23:55.609Z,10.40
2022-12-11T08:26:29.879Z,9.20
2022-12-11T08:28:57.415Z,9.50
2022-12-11T08:31:25.554Z,9.87
2022-12-11T08:33:53.193Z,9.87
2022-12-11T08:36:23.007Z,9.77
2022-12-11T08:38:51.614Z,10.00
2022-12-11T08:41:24.208Z,9.53
2022-12-11T08:43:54.966Z,10.70
2022-12-11T08:46:26.737Z,10.80
2022-12-11T08:48:55.634Z,11.73
2022-12-11T08:51:26.284Z,10.53
2022-12-11T08:53:56.851Z,10.50
2022-12-11T08:56:24.976Z,10.70
2022-12-11T08:58:52.885Z,10.43
2022-12-11T09:01:24.023Z,11.90
2022-12-11T09:03:53.029Z,11.83
2022-12-11T09:06:24.237Z,10.23
2022-12-11T09:08:53.576Z,10.50
2022-12-11T09:11:24.796Z,10.93
2022-12-11T09:13:52.662Z,10.37
2022-12-11T09:16:23.658Z,10.50
2022-12-11T09:18:54.035Z,10.47
2022-12-11T09:21:25.532Z,10.57
2022-12-11T09:24:00.960Z,9.63
2022-12-11T09:26:30.362Z,9.07
2022-12-11T09:28:58.471Z,9.60
2022-12-11T09:31:33.034Z,10.70
2022-12-11T09:34:07.763Z,9.27
2022-12-11T09:36:35.207Z,9.13
2022-12-11T09:39:08.655Z,9.33
2022-12-11T09:42:05.086Z,10.37
2022-12-11T09:44:35.805Z,9.33
2022-12-11T09:47:02.989Z,10.10
2022-12-11T09:49:44.081Z,9.77
2022-12-11T09:52:13.574Z,9.87
2022-12-11T09:55:02.279Z,9.40
2022-12-11T09:57:38.865Z,8.73
2022-12-11T10:00:18.005Z,10.07
2022-12-11T10:03:10.567Z,9.53
2022-12-11T10:06:04.521Z,10.03
2022-12-11T10:09:03.870Z,9.47
2022-12-11T10:12:12.031Z,8.07
2022-12-11T10:15:35.401Z,8.77
2022-12-11T10:18:07.106Z,9.70
2022-12-11T10:20:39.247Z,9.70
2022-12-11T10:23:36.210Z,10.97
2022-12-11T10:26:10.975Z,10.47
2022-12-11T10:28:38.133Z,10.27
2022-12-11T10:31:46.714Z,10.60
2022-12-11T10:34:33.057Z,11.03
2022-12-11T10:37:00.802Z,12.00
2022-12-11T10:39:28.368Z,10.57
2022-12-11T10:41:56.957Z,10.57
2022-12-11T10:44:30.285Z,10.23
2022-12-11T10:47:14.023Z,10.50
2022-12-11T10:49:54.368Z,11.10
2022-12-11T10:52:29.702Z,10.80
2022-12-11T10:55:06.980Z,10.90
2022-12-11T10:57:39.240Z,10.57
2022-12-11T11:00:26.644Z,9.30
2022-12-11T11:02:53.818Z,9.77
2022-12-11T11:05:36.645Z,9.03
2022-12-11T11:08:15.286Z,9.57
2022-12-11T11:10:57.261Z,9.40
2022-12-11T11:13:30.755Z,8.43
2022-12-11T11:16:11.604Z,8.50
2022-12-11T11:18:41.976Z,8.57
2022-12-11T11:21:18.890Z,8.63
2022-12-11T11:23:48.398Z,8.83
2022-12-11T11:26:23.008Z,8.30
2022-12-11T11:28:56.590Z,8.77
2022-12-11T11:31:34.414Z,8.77
2022-12-11T11:34:06.848Z,7.37
2022-12-11T11:36:36.947Z,8.33
2022-12-11T11:39:26.192Z,8.70
2022-12-11T11:42:03.881Z,8.53
2022-12-11T11:44:53.930Z,9.43
2022-12-11T11:47:30.841Z,10.70
2022-12-11T11:50:16.305Z,10.10
2022-12-11T11:53:00.385Z,9.93
2022-12-11T11:55:27.222Z,8.63
2022-12-11T11:58:35.205Z,9.67
2022-12-11T12:01:02.148Z,8.83
2022-12-11T12:03:30.041Z,8.90
2022-12-11T12:06:14.956Z,10.13
2022-12-11T12:09:14.616Z,9.43
2022-12-11T12:12:00.235Z,10.30
2022-12-11T12:14:54.729Z,9.30
2022-12-11T12:17:43.049Z,8.23
2022-12-11T12:20:37.369Z,8.97
2022-12-11T12:23:37.925Z,9.67
2022-12-11T12:26:23.494Z,10.13
2022-12-11T12:29:13.677Z,9.60
2022-12-11T12:31:55.532Z,9.37
2022-12-11T12:34:32.007Z,8.93
2022-12-11T12:37:42.534Z,9.17
2022-12-11T12:40:33.607Z,9.40
2022-12-11T12:43:41.308Z,9.30
2022-12-11T12:46:34.257Z,9.13
2022-12-11T12:49:02.614Z,8.17
2022-12-11T12:51:30.415Z,9.37
2022-12-11T12:54:03.885Z,8.87
2022-12-11T12:56:34.014Z,8.37
2022-12-11T12:59:01.065Z,8.70
2022-12-11T13:01:30.250Z,8.53
2022-12-11T13:04:04.469Z,8.77
2022-12-11T13:06:41.350Z,8.20
2022-12-11T13:09:28.015Z,8.60
2022-12-11T13:11:59.726Z,9.13
2022-12-11T13:14:32.671Z,8.17
2022-12-11T13:17:39.713Z,8.80
2022-12-11T13:20:20.443Z,9.17
2022-12-11T13:23:07.227Z,8.83
2022-12-11T13:25:48.406Z,8.60
2022-12-11T13:28:37.737Z,9.17
2022-12-11T13:31:15.466Z,8.37
2022-12-11T13:33:55.741Z,8.73
2022-12-11T13:36:31.783Z,8.17
2022-12-11T13:39:07.953Z,8.10
2022-12-11T13:41:38.310Z,8.07
2022-12-11T13:44:07.250Z,7.97
2022-12-11T13:46:37.307Z,8.50
2022-12-11T13:49:18.797Z,8.40
2022-12-11T13:52:00.111Z,8.53
2022-12-11T13:54:29.469Z,8.27
2022-12-11T13:57:08.400Z,8.77
2022-12-11T13:59:38.950Z,8.43
2022-12-11T14:02:40.305Z,8.43
2022-12-11T14:05:11.239Z,7.70
2022-12-11T14:07:56.327Z,8.33
2022-12-11T14:10:32.344Z,7.50
2022-12-11T14:13:11.593Z,8.70
2022-12-11T14:15:44.478Z,8.47
2022-12-11T14:18:31.473Z,8.07
2022-12-11T14:21:05.118Z,7.77
2022-12-11T14:23:37.533Z,7.17
2022-12-11T14:26:21.589Z,8.60
2022-12-11T14:28:48.846Z,7.80
2022-12-11T14:31:41.072Z,7.03
2022-12-11T14:34:23.162Z,7.90
2022-12-11T14:36:50.771Z,6.83
2022-12-11T14:39:36.188Z,7.90
2022-12-11T14:42:18.321Z,8.07
2022-12-11T14:44:53.710Z,8.63
2022-12-11T14:47:51.772Z,8.20
2022-12-11T14:50:31.033Z,9.53
2022-12-11T14:53:04.484Z,8.57
2022-12-11T14:55:35.255Z,8.57
2022-12-11T14:58:22.449Z,8.70
2022-12-11T15:00:58.205Z,8.43
2022-12-11T15:03:30.604Z,8.43
2022-12-11T15:05:58.622Z,8.20
2022-12-11T15:08:33.142Z,7.03
2022-12-11T15:11:06.392Z,8.43
2022-12-11T15:13:36.146Z,7.80
2022-12-11T15:16:05.984Z,8.50
2022-12-11T15:18:39.870Z,9.70
2022-12-11T15:21:11.462Z,8.20
2022-12-11T15:23:57.277Z,8.23
2022-12-11T15:26:44.053Z,8.00
2022-12-11T15:29:40.119Z,7.60
2022-12-11T15:32:09.893Z,7.50
2022-12-11T15:34:50.537Z,7.87
2022-12-11T15:37:33.885Z,8.17
2022-12-11T15:40:04.829Z,8.07
2022-12-11T15:42:37.105Z,8.23
2022-12-11T15:45:08.741Z,9.63
2022-12-11T15:47:35.779Z,8.30
2022-12-11T15:50:23.604Z,8.57
2022-12-11T15:52:54.038Z,7.90
2022-12-11T15:55:25.180Z,7.60
2022-12-11T15:58:00.467Z,8.87
2022-12-11T16:00:28.267Z,8.97
2022-12-11T16:02:57.069Z,8.27
2022-12-11T16:05:25.269Z,8.33
2022-12-11T16:07:54.003Z,9.13
2022-12-11T16:10:21.859Z,8.50
2022-12-11T16:12:48.951Z,8.00
2022-12-11T16:15:23.151Z,9.20
2022-12-11T16:18:00.664Z,8.57
2022-12-11T16:20:27.626Z,9.03
2022-12-11T16:22:54.628Z,8.93
2022-12-11T16:25:21.673Z,8.00
2022-12-11T16:27:48.667Z,8.13
2022-12-11T16:30:15.700Z,8.20
2022-12-11T16:32:43.329Z,7.70
2022-12-11T16:35:11.222Z,8.13
2022-12-11T16:37:38.386Z,8.60
2022-12-11T16:40:09.293Z,7.77
2022-12-11T16:42:37.739Z,8.50
2022-12-11T16:45:09.175Z,8.00
2022-12-11T16:47:36.462Z,8.23
2022-12-11T16:50:04.045Z,7.73
2022-12-11T16:52:33.330Z,8.10
2022-12-11T16:55:00.512Z,8.97
2022-12-11T16:57:28.160Z,8.77
2022-12-11T16:59:55.308Z,7.90
2022-12-11T17:02:22.395Z,9.27
2022-12-11T17:04:53.855Z,8.03
2022-12-11T17:07:21.226Z,8.83
2022-12-11T17:09:48.341Z,8.67
2022-12-11T17:12:15.430Z,8.23
2022-12-11T17:14:42.568Z,8.70
2022-12-11T17:17:09.517Z,8.57
2022-12-11T17:19:36.637Z,8.87
2022-12-11T17:22:04.643Z,8.50
2022-12-11T17:24:31.711Z,7.73
2022-12-11T17:26:59.773Z,8.13
2022-12-11T17:29:26.750Z,7.63
2022-12-11T17:31:53.798Z,7.30
2022-12-11T17:34:20.767Z,7.00
2022-12-11T17:36:47.807Z,6.67
2022-12-11T17:39:14.805Z,7.97
2022-12-11T17:41:41.745Z,6.87
2022-12-11T17:44:09.543Z,6.70
2022-12-11T17:46:36.684Z,7.03
2022-12-11T17:49:05.405Z,7.27
2022-12-11T17:51:32.485Z,7.47
2022-12-11T17:53:59.586Z,7.17
2022-12-11T17:56:27.105Z,7.47
2022-12-11T17:58:54.110Z,7.53
2022-12-11T18:01:21.371Z,6.77
2022-12-11T18:03:48.458Z,8.20
2022-12-11T18:06:17.404Z,7.63
2022-12-11T18:08:46.038Z,7.30
2022-12-11T18:11:17.615Z,7.33
2022-12-11T18:13:46.354Z,8.47
2022-12-11T18:16:24.745Z,9.07
2022-12-11T18:18:52.373Z,8.20
2022-12-11T18:21:24.600Z,8.80
2022-12-11T18:23:52.827Z,9.03
2022-12-11T18:26:21.416Z,8.40
2022-12-11T18:28:52.189Z,9.30
2022-12-11T18:31:20.980Z,8.00
2022-12-11T18:33:48.561Z,9.37
2022-12-11T18:36:17.304Z,8.40
2022-12-11T18:38:45.065Z,9.50
2022-12-11T18:41:16.724Z,8.60
2022-12-11T18:43:43.840Z,9.47
2022-12-11T18:46:14.371Z,9.47
2022-12-11T18:48:43.365Z,10.13
2022-12-11T18:51:17.133Z,9.47
2022-12-11T18:53:44.818Z,9.87
2022-12-11T18:56:16.075Z,9.67
2022-12-11T18:58:43.841Z,8.60
2022-12-11T19:01:22.193Z,9.70
2022-12-11T19:03:51.360Z,10.90
2022-12-11T19:06:22.834Z,10.63
2022-12-11T19:08:50.692Z,10.80
2022-12-11T19:11:22.147Z,11.33
2022-12-11T19:13:49.873Z,10.17
2022-12-11T19:16:19.443Z,9.33
2022-12-11T19:18:46.952Z,9.47
2022-12-11T19:21:16.351Z,8.23
2022-12-11T19:23:45.280Z,9.33
2022-12-11T19:26:16.007Z,8.67
2022-12-11T19:28:43.549Z,8.57
2022-12-11T19:31:14.103Z,8.43
2022-12-11T19:33:42.236Z,8.10
2022-12-11T19:36:12.981Z,8.03
2022-12-11T19:38:42.160Z,9.23
2022-12-11T19:41:22.289Z,8.17
2022-12-11T19:43:50.506Z,8.63
2022-12-11T19:46:19.902Z,8.90
2022-12-11T19:48:50.378Z,8.60
2022-12-11T19:51:28.382Z,7.93
2022-12-11T19:53:55.956Z,8.37
2022-12-11T19:56:23.079Z,8.03
2022-12-11T19:58:50.607Z,7.57
2022-12-11T20:01:30.260Z,8.17
2022-12-11T20:04:01.140Z,9.07
2022-12-11T20:06:34.820Z,9.03
2022-12-11T20:09:03.624Z,9.30
2022-12-11T20:11:32.676Z,9.30
2022-12-11T20:14:00.409Z,9.90
2022-12-11T20:16:53.831Z,9.80
2022-12-11T20:19:15.377Z,9.67
2022-12-11T20:21:42.637Z,10.07
2022-12-11T20:24:10.394Z,9.40
2022-12-11T20:26:38.210Z,8.33
2022-12-11T20:29:08.376Z,9.13
2022-12-11T20:31:36.685Z,9.80
2022-12-11T20:34:04.874Z,8.53
2022-12-11T20:36:32.584Z,8.47
2022-12-11T20:38:59.656Z,8.70
2022-12-11T20:41:27.663Z,8.20
2022-12-11T20:43:54.740Z,7.90
2022-12-11T20:46:25.324Z,7.97
2022-12-11T20:48:53.935Z,7.93
2022-12-11T20:51:25.802Z,8.03
2022-12-11T20:54:01.340Z,7.83
2022-12-11T20:56:31.088Z,8.37
2022-12-11T20:58:59.972Z,8.27
2022-12-11T21:01:31.672Z,8.27
2022-12-11T21:03:59.991Z,9.00
2022-12-11T21:06:34.467Z,8.67
2022-12-11T21:09:07.222Z,8.93
2022-12-11T21:11:34.547Z,9.90
2022-12-11T21:14:01.623Z,9.63
2022-12-11T21:16:28.999Z,9.60
2022-12-11T21:18:57.525Z,9.40
2022-12-11T21:21:25.271Z,8.53
2022-12-11T21:23:52.940Z,8.63
2022-12-11T21:26:20.737Z,9.10
2022-12-11T21:28:48.011Z,9.00
2022-12-11T21:31:19.499Z,9.87
2022-12-11T21:33:47.304Z,10.07
2022-12-11T21:36:15.793Z,8.63
2022-12-11T21:38:43.925Z,8.73
2022-12-11T21:41:21.252Z,9.97
2022-12-11T21:46:38.732Z,9.80
2022-12-11T21:49:06.152Z,8.97
2022-12-11T21:51:39.459Z,9.60
2022-12-11T21:54:14.286Z,8.90
2022-12-11T21:56:42.120Z,9.17
2022-12-11T21:59:09.847Z,8.93
2022-12-11T22:01:46.546Z,9.07
2022-12-11T22:04:15.512Z,10.03
2022-12-11T22:06:44.736Z,8.83
2022-12-11T22:09:13.069Z,9.03
2022-12-11T22:11:42.156Z,9.47
2022-12-11T22:14:13.943Z,9.23
2022-12-11T22:16:41.382Z,8.97
2022-12-11T22:19:08.564Z,9.60
2022-12-11T22:21:36.123Z,8.97
2022-12-11T22:24:03.506Z,8.57
2022-12-11T22:26:30.935Z,8.83
2022-12-11T22:28:58.839Z,8.80
2022-12-11T22:31:27.909Z,9.23
2022-12-11T22:33:55.456Z,8.90
2022-12-11T22:36:25.223Z,8.97
2022-12-11T22:38:52.804Z,8.70
2022-12-11T22:41:25.118Z,8.47
2022-12-11T22:43:52.438Z,10.00
2022-12-11T22:46:22.481Z,9.30
2022-12-11T22:48:49.928Z,10.00
2022-12-11T22:51:17.390Z,9.80
2022-12-11T22:53:44.678Z,10.53
2022-12-11T22:56:14.042Z,10.17
2022-12-11T22:58:41.585Z,9.57
2022-12-11T23:01:16.985Z,9.67
2022-12-11T23:03:44.484Z,9.17
2022-12-11T23:06:15.490Z,10.20
2022-12-11T23:08:43.374Z,9.37
2022-12-11T23:11:15.867Z,9.13
2022-12-11T23:13:43.440Z,9.50
2022-12-11T23:16:11.262Z,10.57
2022-12-11T23:18:39.455Z,10.60
2022-12-11T23:21:07.254Z,10.87
2022-12-11T23:23:34.267Z,10.80
2022-12-11T23:26:02.220Z,9.57
2022-12-11T23:28:29.253Z,10.33
2022-12-11T23:30:56.328Z,9.13
2022-12-11T23:33:23.405Z,9.63
2022-12-11T23:35:50.565Z,8.63
2022-12-11T23:38:18.137Z,11.90
2022-12-11T23:40:45.115Z,9.40
2022-12-11T23:43:12.136Z,9.87
2022-12-11T23:45:39.130Z,8.53
2022-12-11T23:48:06.099Z,10.07
2022-12-11T23:50:33.219Z,9.87
2022-12-11T23:53:00.550Z,10.07
2022-12-11T23:55:27.830Z,8.97
2022-12-11T23:57:55.145Z,9.37
